sensor_id;sensor_type;location;lat;lon;timestamp;temperature;humidity
71082;SHT31;58740;50.672;18.690;2023-05-07T00:00:24;9.89;78.49
71082;SHT31;58740;50.672;18.690;2023-05-07T00:03:13;9.87;78.34
71082;SHT31;58740;50.672;18.690;2023-05-07T00:05:41;9.86;78.48
71082;SHT31;58740;50.672;18.690;2023-05-07T00:08:09;9.83;78.48
71082;SHT31;58740;50.672;18.690;2023-05-07T00:10:37;9.81;78.47
71082;SHT31;58740;50.672;18.690;2023-05-07T00:13:05;9.79;78.37
71082;SHT31;58740;50.672;18.690;2023-05-07T00:15:33;9.77;78.49
71082;SHT31;58740;50.672;18.690;2023-05-07T00:18:01;9.79;78.64
71082;SHT31;58740;50.672;18.690;2023-05-07T00:20:29;9.79;78.71
71082;SHT31;58740;50.672;18.690;2023-05-07T00:22:56;9.78;78.68
71082;SHT31;58740;50.672;18.690;2023-05-07T00:25:24;9.77;78.66
71082;SHT31;58740;50.672;18.690;2023-05-07T00:27:52;9.73;78.71
71082;SHT31;58740;50.672;18.690;2023-05-07T00:30:19;9.71;78.77
71082;SHT31;58740;50.672;18.690;2023-05-07T00:32:47;9.69;78.88
71082;SHT31;58740;50.672;18.690;2023-05-07T00:35:16;9.68;78.90
71082;SHT31;58740;50.672;18.690;2023-05-07T00:37:44;9.67;78.73
71082;SHT31;58740;50.672;18.690;2023-05-07T00:40:12;9.62;78.79
71082;SHT31;58740;50.672;18.690;2023-05-07T00:42:40;9.61;78.70
71082;SHT31;58740;50.672;18.690;2023-05-07T00:45:07;9.59;78.72
71082;SHT31;58740;50.672;18.690;2023-05-07T00:47:36;9.59;78.69
71082;SHT31;58740;50.672;18.690;2023-05-07T00:50:04;9.57;78.73
71082;SHT31;58740;50.672;18.690;2023-05-07T00:52:33;9.57;78.64
71082;SHT31;58740;50.672;18.690;2023-05-07T00:55:05;9.51;78.62
71082;SHT31;58740;50.672;18.690;2023-05-07T00:57:37;9.51;78.64
71082;SHT31;58740;50.672;18.690;2023-05-07T01:00:09;9.52;78.68
71082;SHT31;58740;50.672;18.690;2023-05-07T01:02:38;9.50;78.68
71082;SHT31;58740;50.672;18.690;2023-05-07T01:05:07;9.48;78.61
71082;SHT31;58740;50.672;18.690;2023-05-07T01:07:40;9.45;78.54
71082;SHT31;58740;50.672;18.690;2023-05-07T01:10:09;9.41;78.63
71082;SHT31;58740;50.672;18.690;2023-05-07T01:12:39;9.38;78.75
71082;SHT31;58740;50.672;18.690;2023-05-07T01:15:08;9.37;78.60
71082;SHT31;58740;50.672;18.690;2023-05-07T01:17:40;9.36;78.60
71082;SHT31;58740;50.672;18.690;2023-05-07T01:20:10;9.33;78.59
71082;SHT31;58740;50.672;18.690;2023-05-07T01:22:39;9.34;78.72
71082;SHT31;58740;50.672;18.690;2023-05-07T01:25:07;9.36;78.68
71082;SHT31;58740;50.672;18.690;2023-05-07T01:27:35;9.36;78.58
71082;SHT31;58740;50.672;18.690;2023-05-07T01:30:04;9.35;78.53
71082;SHT31;58740;50.672;18.690;2023-05-07T01:32:35;9.32;78.53
71082;SHT31;58740;50.672;18.690;2023-05-07T01:35:20;9.30;78.62
71082;SHT31;58740;50.672;18.690;2023-05-07T01:37:52;9.29;78.47
71082;SHT31;58740;50.672;18.690;2023-05-07T01:40:21;9.29;78.44
71082;SHT31;58740;50.672;18.690;2023-05-07T01:42:51;9.26;78.42
71082;SHT31;58740;50.672;18.690;2023-05-07T01:45:21;9.27;78.42
71082;SHT31;58740;50.672;18.690;2023-05-07T01:47:49;9.27;78.54
71082;SHT31;58740;50.672;18.690;2023-05-07T01:50:18;9.30;78.68
71082;SHT31;58740;50.672;18.690;2023-05-07T01:52:47;9.31;78.51
71082;SHT31;58740;50.672;18.690;2023-05-07T01:55:17;9.31;78.49
71082;SHT31;58740;50.672;18.690;2023-05-07T01:57:45;9.33;78.52
71082;SHT31;58740;50.672;18.690;2023-05-07T02:00:13;9.34;78.40
71082;SHT31;58740;50.672;18.690;2023-05-07T02:02:41;9.35;78.32
71082;SHT31;58740;50.672;18.690;2023-05-07T02:05:09;9.36;78.21
71082;SHT31;58740;50.672;18.690;2023-05-07T02:07:36;9.37;78.12
71082;SHT31;58740;50.672;18.690;2023-05-07T02:10:04;9.37;78.07
71082;SHT31;58740;50.672;18.690;2023-05-07T02:12:33;9.37;78.01
71082;SHT31;58740;50.672;18.690;2023-05-07T02:15:01;9.35;77.87
71082;SHT31;58740;50.672;18.690;2023-05-07T02:17:29;9.32;77.72
71082;SHT31;58740;50.672;18.690;2023-05-07T02:19:59;9.30;77.79
71082;SHT31;58740;50.672;18.690;2023-05-07T02:22:27;9.27;77.80
71082;SHT31;58740;50.672;18.690;2023-05-07T02:24:55;9.26;77.71
71082;SHT31;58740;50.672;18.690;2023-05-07T02:27:22;9.26;77.84
71082;SHT31;58740;50.672;18.690;2023-05-07T02:29:50;9.25;77.88
71082;SHT31;58740;50.672;18.690;2023-05-07T02:32:17;9.24;77.72
71082;SHT31;58740;50.672;18.690;2023-05-07T02:34:45;9.21;77.77
71082;SHT31;58740;50.672;18.690;2023-05-07T02:37:13;9.22;77.98
71082;SHT31;58740;50.672;18.690;2023-05-07T02:39:40;9.23;77.86
71082;SHT31;58740;50.672;18.690;2023-05-07T02:42:08;9.21;77.81
71082;SHT31;58740;50.672;18.690;2023-05-07T02:44:36;9.18;77.80
71082;SHT31;58740;50.672;18.690;2023-05-07T02:47:04;9.14;77.69
71082;SHT31;58740;50.672;18.690;2023-05-07T02:49:32;9.11;77.69
71082;SHT31;58740;50.672;18.690;2023-05-07T02:52:00;9.06;77.70
71082;SHT31;58740;50.672;18.690;2023-05-07T02:54:28;9.06;77.80
71082;SHT31;58740;50.672;18.690;2023-05-07T02:56:56;9.06;77.75
71082;SHT31;58740;50.672;18.690;2023-05-07T02:59:23;9.03;77.80
71082;SHT31;58740;50.672;18.690;2023-05-07T03:01:53;8.98;77.64
71082;SHT31;58740;50.672;18.690;2023-05-07T03:04:21;8.92;77.69
71082;SHT31;58740;50.672;18.690;2023-05-07T03:06:49;8.90;77.79
71082;SHT31;58740;50.672;18.690;2023-05-07T03:09:16;8.87;77.71
71082;SHT31;58740;50.672;18.690;2023-05-07T03:11:44;8.83;77.74
71082;SHT31;58740;50.672;18.690;2023-05-07T03:14:12;8.82;77.88
71082;SHT31;58740;50.672;18.690;2023-05-07T03:16:40;8.82;77.89
71082;SHT31;58740;50.672;18.690;2023-05-07T03:19:08;8.81;77.78
71082;SHT31;58740;50.672;18.690;2023-05-07T03:21:36;8.80;77.77
71082;SHT31;58740;50.672;18.690;2023-05-07T03:24:04;8.72;77.68
71082;SHT31;58740;50.672;18.690;2023-05-07T03:26:32;8.66;77.74
71082;SHT31;58740;50.672;18.690;2023-05-07T03:29:00;8.62;77.79
71082;SHT31;58740;50.672;18.690;2023-05-07T03:31:28;8.57;77.96
71082;SHT31;58740;50.672;18.690;2023-05-07T03:33:56;8.56;77.98
71082;SHT31;58740;50.672;18.690;2023-05-07T03:36:25;8.56;77.97
71082;SHT31;58740;50.672;18.690;2023-05-07T03:38:55;8.55;77.87
71082;SHT31;58740;50.672;18.690;2023-05-07T03:41:23;8.52;77.93
71082;SHT31;58740;50.672;18.690;2023-05-07T03:43:51;8.52;77.94
71082;SHT31;58740;50.672;18.690;2023-05-07T03:46:18;8.51;78.08
71082;SHT31;58740;50.672;18.690;2023-05-07T03:48:47;8.53;78.10
71082;SHT31;58740;50.672;18.690;2023-05-07T03:51:15;8.53;77.97
71082;SHT31;58740;50.672;18.690;2023-05-07T03:53:43;8.53;77.81
71082;SHT31;58740;50.672;18.690;2023-05-07T03:56:13;8.52;77.88
71082;SHT31;58740;50.672;18.690;2023-05-07T03:58:42;8.52;77.74
71082;SHT31;58740;50.672;18.690;2023-05-07T04:01:10;8.48;77.65
71082;SHT31;58740;50.672;18.690;2023-05-07T04:03:39;8.48;77.77
71082;SHT31;58740;50.672;18.690;2023-05-07T04:06:07;8.45;77.63
71082;SHT31;58740;50.672;18.690;2023-05-07T04:08:34;8.42;77.60
71082;SHT31;58740;50.672;18.690;2023-05-07T04:11:03;8.39;77.52
71082;SHT31;58740;50.672;18.690;2023-05-07T04:13:31;8.31;77.60
71082;SHT31;58740;50.672;18.690;2023-05-07T04:16:00;8.30;77.82
71082;SHT31;58740;50.672;18.690;2023-05-07T04:18:30;8.31;77.85
71082;SHT31;58740;50.672;18.690;2023-05-07T04:20:58;8.32;77.69
71082;SHT31;58740;50.672;18.690;2023-05-07T04:23:26;8.30;77.47
71082;SHT31;58740;50.672;18.690;2023-05-07T04:25:54;8.28;77.58
71082;SHT31;58740;50.672;18.690;2023-05-07T04:28:21;8.29;77.65
71082;SHT31;58740;50.672;18.690;2023-05-07T04:30:49;8.27;77.51
71082;SHT31;58740;50.672;18.690;2023-05-07T04:33:17;8.20;77.19
71082;SHT31;58740;50.672;18.690;2023-05-07T04:35:45;8.11;77.26
71082;SHT31;58740;50.672;18.690;2023-05-07T04:38:13;8.05;77.27
71082;SHT31;58740;50.672;18.690;2023-05-07T04:40:41;8.02;77.24
71082;SHT31;58740;50.672;18.690;2023-05-07T04:43:09;7.99;77.32
71082;SHT31;58740;50.672;18.690;2023-05-07T04:45:38;7.98;77.21
71082;SHT31;58740;50.672;18.690;2023-05-07T04:48:09;7.96;77.31
71082;SHT31;58740;50.672;18.690;2023-05-07T04:50:37;7.95;77.21
71082;SHT31;58740;50.672;18.690;2023-05-07T04:53:05;7.92;77.26
71082;SHT31;58740;50.672;18.690;2023-05-07T04:55:33;7.88;77.33
71082;SHT31;58740;50.672;18.690;2023-05-07T04:58:01;7.85;77.53
71082;SHT31;58740;50.672;18.690;2023-05-07T05:00:29;7.89;77.71
71082;SHT31;58740;50.672;18.690;2023-05-07T05:02:57;7.93;77.71
71082;SHT31;58740;50.672;18.690;2023-05-07T05:05:25;7.95;77.53
71082;SHT31;58740;50.672;18.690;2023-05-07T05:07:53;7.94;77.36
71082;SHT31;58740;50.672;18.690;2023-05-07T05:10:21;7.92;77.45
71082;SHT31;58740;50.672;18.690;2023-05-07T05:12:51;7.92;77.46
71082;SHT31;58740;50.672;18.690;2023-05-07T05:15:19;7.91;77.29
71082;SHT31;58740;50.672;18.690;2023-05-07T05:17:47;7.90;77.28
71082;SHT31;58740;50.672;18.690;2023-05-07T05:20:15;7.88;77.16
71082;SHT31;58740;50.672;18.690;2023-05-07T05:22:43;7.86;77.26
71082;SHT31;58740;50.672;18.690;2023-05-07T05:25:10;7.87;77.35
71082;SHT31;58740;50.672;18.690;2023-05-07T05:27:38;7.85;77.34
71082;SHT31;58740;50.672;18.690;2023-05-07T05:30:06;7.82;77.29
71082;SHT31;58740;50.672;18.690;2023-05-07T05:32:34;7.80;77.33
71082;SHT31;58740;50.672;18.690;2023-05-07T05:35:02;7.78;77.38
71082;SHT31;58740;50.672;18.690;2023-05-07T05:37:30;7.78;77.25
71082;SHT31;58740;50.672;18.690;2023-05-07T05:39:58;7.78;77.12
71082;SHT31;58740;50.672;18.690;2023-05-07T05:42:26;7.77;77.18
71082;SHT31;58740;50.672;18.690;2023-05-07T05:44:54;7.76;77.06
71082;SHT31;58740;50.672;18.690;2023-05-07T05:47:22;7.72;77.22
71082;SHT31;58740;50.672;18.690;2023-05-07T05:49:50;7.70;77.20
71082;SHT31;58740;50.672;18.690;2023-05-07T05:52:18;7.69;77.28
71082;SHT31;58740;50.672;18.690;2023-05-07T05:54:45;7.72;77.38
71082;SHT31;58740;50.672;18.690;2023-05-07T05:57:13;7.73;77.17
71082;SHT31;58740;50.672;18.690;2023-05-07T05:59:41;7.70;77.04
71082;SHT31;58740;50.672;18.690;2023-05-07T06:02:09;7.68;77.12
71082;SHT31;58740;50.672;18.690;2023-05-07T06:04:37;7.68;77.16
71082;SHT31;58740;50.672;18.690;2023-05-07T06:07:05;7.68;77.15
71082;SHT31;58740;50.672;18.690;2023-05-07T06:09:33;7.68;77.09
71082;SHT31;58740;50.672;18.690;2023-05-07T06:12:01;7.64;76.99
71082;SHT31;58740;50.672;18.690;2023-05-07T06:14:28;7.58;77.02
71082;SHT31;58740;50.672;18.690;2023-05-07T06:16:57;7.57;77.10
71082;SHT31;58740;50.672;18.690;2023-05-07T06:19:25;7.57;77.11
71082;SHT31;58740;50.672;18.690;2023-05-07T06:21:54;7.60;77.08
71082;SHT31;58740;50.672;18.690;2023-05-07T06:24:24;7.59;77.09
71082;SHT31;58740;50.672;18.690;2023-05-07T06:26:51;7.59;77.00
71082;SHT31;58740;50.672;18.690;2023-05-07T06:29:19;7.59;77.03
71082;SHT31;58740;50.672;18.690;2023-05-07T06:31:47;7.57;76.96
71082;SHT31;58740;50.672;18.690;2023-05-07T06:34:15;7.57;77.16
71082;SHT31;58740;50.672;18.690;2023-05-07T06:36:43;7.61;77.22
71082;SHT31;58740;50.672;18.690;2023-05-07T06:39:10;7.65;77.19
71082;SHT31;58740;50.672;18.690;2023-05-07T06:41:38;7.65;77.22
71082;SHT31;58740;50.672;18.690;2023-05-07T06:44:06;7.66;77.25
71082;SHT31;58740;50.672;18.690;2023-05-07T06:46:36;7.67;77.31
71082;SHT31;58740;50.672;18.690;2023-05-07T06:49:04;7.70;77.41
71082;SHT31;58740;50.672;18.690;2023-05-07T06:51:32;7.76;77.29
71082;SHT31;58740;50.672;18.690;2023-05-07T06:54:01;7.81;77.10
71082;SHT31;58740;50.672;18.690;2023-05-07T06:56:29;7.85;76.85
71082;SHT31;58740;50.672;18.690;2023-05-07T06:58:57;7.90;76.88
71082;SHT31;58740;50.672;18.690;2023-05-07T07:01:27;7.93;76.66
71082;SHT31;58740;50.672;18.690;2023-05-07T07:03:55;7.95;76.56
71082;SHT31;58740;50.672;18.690;2023-05-07T07:06:23;7.95;76.44
71082;SHT31;58740;50.672;18.690;2023-05-07T07:08:51;7.99;76.54
71082;SHT31;58740;50.672;18.690;2023-05-07T07:11:19;8.02;76.56
71082;SHT31;58740;50.672;18.690;2023-05-07T07:13:46;8.06;76.54
71082;SHT31;58740;50.672;18.690;2023-05-07T07:16:14;8.10;76.63
71082;SHT31;58740;50.672;18.690;2023-05-07T07:18:42;8.16;76.68
71082;SHT31;58740;50.672;18.690;2023-05-07T07:21:09;8.18;76.17
71082;SHT31;58740;50.672;18.690;2023-05-07T07:23:37;8.17;76.18
71082;SHT31;58740;50.672;18.690;2023-05-07T07:26:05;8.16;76.04
71082;SHT31;58740;50.672;18.690;2023-05-07T07:28:34;8.09;76.21
71082;SHT31;58740;50.672;18.690;2023-05-07T07:31:02;8.06;76.12
71082;SHT31;58740;50.672;18.690;2023-05-07T07:33:30;8.05;75.98
71082;SHT31;58740;50.672;18.690;2023-05-07T07:35:58;8.02;76.03
71082;SHT31;58740;50.672;18.690;2023-05-07T07:38:25;8.01;76.09
71082;SHT31;58740;50.672;18.690;2023-05-07T07:40:53;7.96;76.07
71082;SHT31;58740;50.672;18.690;2023-05-07T07:43:22;7.93;76.10
71082;SHT31;58740;50.672;18.690;2023-05-07T07:45:49;7.93;76.08
71082;SHT31;58740;50.672;18.690;2023-05-07T07:48:17;7.95;76.07
71082;SHT31;58740;50.672;18.690;2023-05-07T07:50:45;7.96;76.07
71082;SHT31;58740;50.672;18.690;2023-05-07T07:53:18;7.96;75.69
71082;SHT31;58740;50.672;18.690;2023-05-07T07:55:46;7.97;75.85
71082;SHT31;58740;50.672;18.690;2023-05-07T07:58:15;8.00;75.76
71082;SHT31;58740;50.672;18.690;2023-05-07T08:01:08;8.03;75.39
71082;SHT31;58740;50.672;18.690;2023-05-07T08:03:41;8.01;75.32
71082;SHT31;58740;50.672;18.690;2023-05-07T08:06:09;7.99;75.51
71082;SHT31;58740;50.672;18.690;2023-05-07T08:08:38;7.98;75.43
71082;SHT31;58740;50.672;18.690;2023-05-07T08:11:14;7.98;75.41
71082;SHT31;58740;50.672;18.690;2023-05-07T08:13:42;8.00;75.51
71082;SHT31;58740;50.672;18.690;2023-05-07T08:16:31;8.05;75.43
71082;SHT31;58740;50.672;18.690;2023-05-07T08:18:58;8.07;75.26
71082;SHT31;58740;50.672;18.690;2023-05-07T08:21:27;8.09;75.17
71082;SHT31;58740;50.672;18.690;2023-05-07T08:23:55;8.08;75.00
71082;SHT31;58740;50.672;18.690;2023-05-07T08:26:35;8.10;75.20
71082;SHT31;58740;50.672;18.690;2023-05-07T08:29:03;8.11;75.26
71082;SHT31;58740;50.672;18.690;2023-05-07T08:31:31;8.16;75.42
71082;SHT31;58740;50.672;18.690;2023-05-07T08:33:59;8.19;75.21
71082;SHT31;58740;50.672;18.690;2023-05-07T08:36:27;8.23;75.33
71082;SHT31;58740;50.672;18.690;2023-05-07T08:38:55;8.26;75.01
71082;SHT31;58740;50.672;18.690;2023-05-07T08:41:23;8.26;74.67
71082;SHT31;58740;50.672;18.690;2023-05-07T08:43:51;8.26;74.87
71082;SHT31;58740;50.672;18.690;2023-05-07T08:46:21;8.25;74.91
71082;SHT31;58740;50.672;18.690;2023-05-07T08:48:50;8.25;74.68
71082;SHT31;58740;50.672;18.690;2023-05-07T08:51:19;8.22;74.64
71082;SHT31;58740;50.672;18.690;2023-05-07T08:53:48;8.22;74.71
71082;SHT31;58740;50.672;18.690;2023-05-07T08:56:17;8.21;74.69
71082;SHT31;58740;50.672;18.690;2023-05-07T08:58:49;8.21;74.68
71082;SHT31;58740;50.672;18.690;2023-05-07T09:01:16;8.21;74.72
71082;SHT31;58740;50.672;18.690;2023-05-07T09:03:45;8.19;74.78
71082;SHT31;58740;50.672;18.690;2023-05-07T09:06:14;8.16;74.91
71082;SHT31;58740;50.672;18.690;2023-05-07T09:08:48;8.13;74.80
71082;SHT31;58740;50.672;18.690;2023-05-07T09:11:21;8.08;74.59
71082;SHT31;58740;50.672;18.690;2023-05-07T09:13:55;8.08;74.70
71082;SHT31;58740;50.672;18.690;2023-05-07T09:16:25;8.07;74.77
71082;SHT31;58740;50.672;18.690;2023-05-07T09:18:54;8.11;74.85
71082;SHT31;58740;50.672;18.690;2023-05-07T09:21:22;8.13;74.88
71082;SHT31;58740;50.672;18.690;2023-05-07T09:23:51;8.15;74.55
71082;SHT31;58740;50.672;18.690;2023-05-07T09:26:23;8.17;74.45
71082;SHT31;58740;50.672;18.690;2023-05-07T09:28:55;8.17;74.44
71082;SHT31;58740;50.672;18.690;2023-05-07T09:31:23;8.16;74.55
71082;SHT31;58740;50.672;18.690;2023-05-07T09:33:52;8.18;74.42
71082;SHT31;58740;50.672;18.690;2023-05-07T09:36:20;8.22;74.24
71082;SHT31;58740;50.672;18.690;2023-05-07T09:38:48;8.26;73.87
71082;SHT31;58740;50.672;18.690;2023-05-07T09:41:18;8.26;73.69
71082;SHT31;58740;50.672;18.690;2023-05-07T09:43:46;8.29;73.67
71082;SHT31;58740;50.672;18.690;2023-05-07T09:46:27;8.33;73.69
71082;SHT31;58740;50.672;18.690;2023-05-07T09:48:58;8.38;73.53
71082;SHT31;58740;50.672;18.690;2023-05-07T09:51:30;8.42;73.62
71082;SHT31;58740;50.672;18.690;2023-05-07T09:54:10;8.46;73.58
71082;SHT31;58740;50.672;18.690;2023-05-07T09:56:39;8.48;73.42
71082;SHT31;58740;50.672;18.690;2023-05-07T09:59:10;8.48;73.36
71082;SHT31;58740;50.672;18.690;2023-05-07T10:01:43;8.46;73.14
71082;SHT31;58740;50.672;18.690;2023-05-07T10:04:12;8.47;73.44
71082;SHT31;58740;50.672;18.690;2023-05-07T10:06:41;8.49;73.35
71082;SHT31;58740;50.672;18.690;2023-05-07T10:09:12;8.52;73.53
71082;SHT31;58740;50.672;18.690;2023-05-07T10:11:41;8.55;73.45
71082;SHT31;58740;50.672;18.690;2023-05-07T10:14:09;8.56;72.96
71082;SHT31;58740;50.672;18.690;2023-05-07T10:16:38;8.55;72.89
71082;SHT31;58740;50.672;18.690;2023-05-07T10:19:06;8.51;72.81
71082;SHT31;58740;50.672;18.690;2023-05-07T10:21:37;8.51;73.13
71082;SHT31;58740;50.672;18.690;2023-05-07T10:24:12;8.51;73.24
71082;SHT31;58740;50.672;18.690;2023-05-07T10:26:50;8.51;73.35
71082;SHT31;58740;50.672;18.690;2023-05-07T10:31:59;8.49;73.33
71082;SHT31;58740;50.672;18.690;2023-05-07T10:34:45;8.47;73.38
71082;SHT31;58740;50.672;18.690;2023-05-07T10:37:18;8.43;73.65
71082;SHT31;58740;50.672;18.690;2023-05-07T10:39:47;8.46;73.76
71082;SHT31;58740;50.672;18.690;2023-05-07T10:42:15;8.48;73.69
71082;SHT31;58740;50.672;18.690;2023-05-07T10:44:43;8.49;73.77
71082;SHT31;58740;50.672;18.690;2023-05-07T10:47:13;8.49;73.64
71082;SHT31;58740;50.672;18.690;2023-05-07T10:52:14;8.54;73.52
71082;SHT31;58740;50.672;18.690;2023-05-07T10:54:45;8.58;73.27
71082;SHT31;58740;50.672;18.690;2023-05-07T11:00:03;8.55;73.12
71082;SHT31;58740;50.672;18.690;2023-05-07T11:03:05;8.56;73.26
71082;SHT31;58740;50.672;18.690;2023-05-07T11:05:36;8.51;72.98
71082;SHT31;58740;50.672;18.690;2023-05-07T11:08:05;8.46;73.09
71082;SHT31;58740;50.672;18.690;2023-05-07T11:10:49;8.44;73.23
71082;SHT31;58740;50.672;18.690;2023-05-07T11:16:21;8.40;73.52
71082;SHT31;58740;50.672;18.690;2023-05-07T11:18:53;8.43;73.70
71082;SHT31;58740;50.672;18.690;2023-05-07T11:24:10;8.45;73.03
71082;SHT31;58740;50.672;18.690;2023-05-07T11:26:42;8.46;73.22
71082;SHT31;58740;50.672;18.690;2023-05-07T11:29:13;8.52;73.20
71082;SHT31;58740;50.672;18.690;2023-05-07T11:31:54;8.59;72.87
71082;SHT31;58740;50.672;18.690;2023-05-07T11:34:23;8.63;72.52
71082;SHT31;58740;50.672;18.690;2023-05-07T11:36:54;8.63;72.02
71082;SHT31;58740;50.672;18.690;2023-05-07T11:39:30;8.61;72.05
71082;SHT31;58740;50.672;18.690;2023-05-07T11:42:03;8.58;72.61
71082;SHT31;58740;50.672;18.690;2023-05-07T11:44:41;8.56;72.81
71082;SHT31;58740;50.672;18.690;2023-05-07T11:47:11;8.56;72.91
71082;SHT31;58740;50.672;18.690;2023-05-07T11:49:47;8.59;72.74
71082;SHT31;58740;50.672;18.690;2023-05-07T11:52:17;8.60;72.76
71082;SHT31;58740;50.672;18.690;2023-05-07T11:54:53;8.66;72.63
71082;SHT31;58740;50.672;18.690;2023-05-07T11:57:24;8.74;72.41
71082;SHT31;58740;50.672;18.690;2023-05-07T11:59:56;8.81;72.12
71082;SHT31;58740;50.672;18.690;2023-05-07T12:02:26;8.86;72.24
71082;SHT31;58740;50.672;18.690;2023-05-07T12:04:55;8.95;72.31
71082;SHT31;58740;50.672;18.690;2023-05-07T12:07:23;8.99;71.91
71082;SHT31;58740;50.672;18.690;2023-05-07T12:09:52;8.96;71.21
71082;SHT31;58740;50.672;18.690;2023-05-07T12:12:21;8.91;71.46
71082;SHT31;58740;50.672;18.690;2023-05-07T12:14:50;8.86;71.15
71082;SHT31;58740;50.672;18.690;2023-05-07T12:17:18;8.85;71.33
71082;SHT31;58740;50.672;18.690;2023-05-07T12:19:46;8.83;71.20
71082;SHT31;58740;50.672;18.690;2023-05-07T12:22:19;8.81;71.40
71082;SHT31;58740;50.672;18.690;2023-05-07T12:24:48;8.82;71.41
71082;SHT31;58740;50.672;18.690;2023-05-07T12:27:25;8.83;71.48
71082;SHT31;58740;50.672;18.690;2023-05-07T12:29:53;8.83;71.39
71082;SHT31;58740;50.672;18.690;2023-05-07T12:32:22;8.83;71.20
71082;SHT31;58740;50.672;18.690;2023-05-07T12:34:50;8.85;71.18
71082;SHT31;58740;50.672;18.690;2023-05-07T12:37:22;8.86;71.10
71082;SHT31;58740;50.672;18.690;2023-05-07T12:40:05;8.88;71.25
71082;SHT31;58740;50.672;18.690;2023-05-07T12:42:53;8.86;70.82
71082;SHT31;58740;50.672;18.690;2023-05-07T12:45:27;8.85;70.78
71082;SHT31;58740;50.672;18.690;2023-05-07T12:47:54;8.85;70.96
71082;SHT31;58740;50.672;18.690;2023-05-07T12:50:22;8.91;71.07
71082;SHT31;58740;50.672;18.690;2023-05-07T12:52:50;8.94;70.87
71082;SHT31;58740;50.672;18.690;2023-05-07T12:55:18;8.99;70.74
71082;SHT31;58740;50.672;18.690;2023-05-07T12:57:50;9.05;70.60
71082;SHT31;58740;50.672;18.690;2023-05-07T13:00:38;9.07;70.45
71082;SHT31;58740;50.672;18.690;2023-05-07T13:03:08;9.12;70.66
71082;SHT31;58740;50.672;18.690;2023-05-07T13:05:37;9.16;70.51
71082;SHT31;58740;50.672;18.690;2023-05-07T13:08:05;9.19;69.98
71082;SHT31;58740;50.672;18.690;2023-05-07T13:10:33;9.20;69.22
71082;SHT31;58740;50.672;18.690;2023-05-07T13:13:01;9.18;69.54
71082;SHT31;58740;50.672;18.690;2023-05-07T13:15:30;9.16;69.76
71082;SHT31;58740;50.672;18.690;2023-05-07T13:17:58;9.15;69.92
71082;SHT31;58740;50.672;18.690;2023-05-07T13:20:26;9.12;69.37
71082;SHT31;58740;50.672;18.690;2023-05-07T13:22:54;9.06;69.62
71082;SHT31;58740;50.672;18.690;2023-05-07T13:25:21;9.02;69.76
71082;SHT31;58740;50.672;18.690;2023-05-07T13:27:49;8.98;70.05
71082;SHT31;58740;50.672;18.690;2023-05-07T13:30:36;8.95;69.97
71082;SHT31;58740;50.672;18.690;2023-05-07T13:33:04;8.93;70.09
71082;SHT31;58740;50.672;18.690;2023-05-07T13:35:32;8.91;69.66
71082;SHT31;58740;50.672;18.690;2023-05-07T13:38:01;8.85;69.70
71082;SHT31;58740;50.672;18.690;2023-05-07T13:40:29;8.86;70.14
71082;SHT31;58740;50.672;18.690;2023-05-07T13:42:58;8.90;70.10
71082;SHT31;58740;50.672;18.690;2023-05-07T13:45:29;8.92;69.80
71082;SHT31;58740;50.672;18.690;2023-05-07T13:47:57;8.92;69.63
71082;SHT31;58740;50.672;18.690;2023-05-07T13:50:25;8.91;69.39
71082;SHT31;58740;50.672;18.690;2023-05-07T13:52:57;8.87;68.72
71082;SHT31;58740;50.672;18.690;2023-05-07T13:55:25;8.82;69.04
71082;SHT31;58740;50.672;18.690;2023-05-07T13:57:56;8.81;69.11
71082;SHT31;58740;50.672;18.690;2023-05-07T14:00:33;8.82;69.36
71082;SHT31;58740;50.672;18.690;2023-05-07T14:03:01;8.86;69.69
71082;SHT31;58740;50.672;18.690;2023-05-07T14:05:31;8.90;69.43
71082;SHT31;58740;50.672;18.690;2023-05-07T14:07:59;8.94;69.23
71082;SHT31;58740;50.672;18.690;2023-05-07T14:10:27;8.97;69.12
71082;SHT31;58740;50.672;18.690;2023-05-07T14:12:54;9.03;69.24
71082;SHT31;58740;50.672;18.690;2023-05-07T14:15:22;9.06;68.56
71082;SHT31;58740;50.672;18.690;2023-05-07T14:17:50;9.06;68.50
71082;SHT31;58740;50.672;18.690;2023-05-07T14:20:18;9.07;68.79
71082;SHT31;58740;50.672;18.690;2023-05-07T14:22:46;9.09;68.87
71082;SHT31;58740;50.672;18.690;2023-05-07T14:25:14;9.12;68.74
71082;SHT31;58740;50.672;18.690;2023-05-07T14:27:42;9.12;68.96
71082;SHT31;58740;50.672;18.690;2023-05-07T14:30:10;9.14;69.17
71082;SHT31;58740;50.672;18.690;2023-05-07T14:32:39;9.14;69.11
71082;SHT31;58740;50.672;18.690;2023-05-07T14:35:07;9.14;69.28
71082;SHT31;58740;50.672;18.690;2023-05-07T14:37:36;9.15;69.16
71082;SHT31;58740;50.672;18.690;2023-05-07T14:40:04;9.11;68.72
71082;SHT31;58740;50.672;18.690;2023-05-07T14:42:33;9.07;68.74
71082;SHT31;58740;50.672;18.690;2023-05-07T14:45:01;9.04;68.43
71082;SHT31;58740;50.672;18.690;2023-05-07T14:47:30;8.99;68.00
71082;SHT31;58740;50.672;18.690;2023-05-07T14:49:57;8.95;68.16
71082;SHT31;58740;50.672;18.690;2023-05-07T14:52:26;8.93;68.22
71082;SHT31;58740;50.672;18.690;2023-05-07T14:54:54;8.93;68.12
71082;SHT31;58740;50.672;18.690;2023-05-07T14:57:22;8.96;68.53
71082;SHT31;58740;50.672;18.690;2023-05-07T14:59:49;9.00;68.56
71082;SHT31;58740;50.672;18.690;2023-05-07T15:02:17;9.02;68.01
71082;SHT31;58740;50.672;18.690;2023-05-07T15:04:47;9.03;68.04
71082;SHT31;58740;50.672;18.690;2023-05-07T15:07:16;9.04;68.26
71082;SHT31;58740;50.672;18.690;2023-05-07T15:09:43;9.07;68.20
71082;SHT31;58740;50.672;18.690;2023-05-07T15:12:12;9.09;68.46
71082;SHT31;58740;50.672;18.690;2023-05-07T15:14:40;9.13;68.66
71082;SHT31;58740;50.672;18.690;2023-05-07T15:17:08;9.15;68.37
71082;SHT31;58740;50.672;18.690;2023-05-07T15:19:36;9.13;68.13
71082;SHT31;58740;50.672;18.690;2023-05-07T15:22:04;9.11;67.43
71082;SHT31;58740;50.672;18.690;2023-05-07T15:24:33;9.11;67.64
71082;SHT31;58740;50.672;18.690;2023-05-07T15:27:00;9.10;67.26
71082;SHT31;58740;50.672;18.690;2023-05-07T15:29:29;9.08;67.16
71082;SHT31;58740;50.672;18.690;2023-05-07T15:31:57;9.05;67.31
71082;SHT31;58740;50.672;18.690;2023-05-07T15:34:25;9.05;67.55
71082;SHT31;58740;50.672;18.690;2023-05-07T15:36:54;9.01;67.92
71082;SHT31;58740;50.672;18.690;2023-05-07T15:39:24;8.96;68.09
71082;SHT31;58740;50.672;18.690;2023-05-07T15:41:51;8.93;68.40
71082;SHT31;58740;50.672;18.690;2023-05-07T15:44:19;8.94;68.68
71082;SHT31;58740;50.672;18.690;2023-05-07T15:46:47;8.97;68.79
71082;SHT31;58740;50.672;18.690;2023-05-07T15:49:14;8.93;68.64
71082;SHT31;58740;50.672;18.690;2023-05-07T15:51:42;8.90;68.40
71082;SHT31;58740;50.672;18.690;2023-05-07T15:54:10;8.87;68.42
71082;SHT31;58740;50.672;18.690;2023-05-07T15:56:37;8.85;68.21